createdAt,value
2023-03-02T00:02:01.750Z,98059.00
2023-03-02T00:04:46.507Z,98062.00
2023-03-02T00:07:20.752Z,98067.00
2023-03-02T00:09:47.757Z,98066.00
2023-03-02T00:12:15.848Z,98063.00
2023-03-02T00:14:42.938Z,98068.00
2023-03-02T00:17:10.480Z,98073.00
2023-03-02T00:19:37.818Z,98056.00
2023-03-02T00:22:05.087Z,98064.00
2023-03-02T00:24:32.263Z,98067.00
2023-03-02T00:26:59.211Z,98070.00
2023-03-02T00:29:26.137Z,98053.00
2023-03-02T00:31:53.773Z,98057.00
2023-03-02T00:34:20.692Z,98064.00
2023-03-02T00:36:49.367Z,98064.00
2023-03-02T00:39:19.923Z,98061.00
2023-03-02T00:41:48.252Z,98048.00
2023-03-02T00:44:17.385Z,98049.00
2023-03-02T00:46:45.043Z,98040.00
2023-03-02T00:49:13.034Z,98047.00
2023-03-02T00:51:39.845Z,98055.00
2023-03-02T00:54:06.629Z,98045.00
2023-03-02T00:56:33.966Z,98044.00
2023-03-02T00:59:07.155Z,98061.00
2023-03-02T01:01:34.741Z,98060.00
2023-03-02T01:04:01.546Z,98034.00
2023-03-02T01:06:28.515Z,98040.00
2023-03-02T01:08:55.949Z,98038.00
2023-03-02T01:11:23.523Z,98038.00
2023-03-02T01:13:51.503Z,98035.00
2023-03-02T01:16:18.406Z,98029.00
2023-03-02T01:18:45.309Z,98033.00
2023-03-02T01:21:15.628Z,98018.00
2023-03-02T01:23:43.081Z,98030.00
2023-03-02T01:26:10.184Z,98026.00
2023-03-02T01:28:37.099Z,98018.00
2023-03-02T01:31:04.529Z,98016.00
2023-03-02T01:33:32.424Z,98004.00
2023-03-02T01:35:59.596Z,98008.00
2023-03-02T01:38:27.136Z,97990.00
2023-03-02T01:40:54.144Z,97992.00
2023-03-02T01:43:21.033Z,97994.00
2023-03-02T01:45:59.294Z,97987.00
2023-03-02T01:49:05.299Z,97991.00
2023-03-02T01:52:04.694Z,97977.00
2023-03-02T01:54:31.713Z,97990.00
2023-03-02T01:57:04.874Z,97988.00
2023-03-02T01:59:36.390Z,97984.00
2023-03-02T02:02:07.705Z,97993.00
2023-03-02T02:04:39.878Z,97980.00
2023-03-02T02:07:09.620Z,97995.00
2023-03-02T02:09:51.175Z,97985.00
2023-03-02T02:12:22.043Z,97971.00
2023-03-02T02:14:50.351Z,97959.00
2023-03-02T02:17:19.732Z,97966.00
2023-03-02T02:19:58.989Z,97975.00
2023-03-02T02:23:03.506Z,97978.00
2023-03-02T02:25:58.088Z,97970.00
2023-03-02T02:28:37.147Z,97965.00
2023-03-02T02:31:44.807Z,97968.00
2023-03-02T02:34:27.874Z,97974.00
2023-03-02T02:37:06.600Z,97966.00
2023-03-02T02:39:41.450Z,97962.00
2023-03-02T02:42:21.238Z,97965.00
2023-03-02T02:44:48.567Z,97960.00
2023-03-02T02:47:21.913Z,97954.00
2023-03-02T02:49:53.105Z,97962.00
2023-03-02T02:52:24.951Z,97966.00
2023-03-02T02:54:56.554Z,97961.00
2023-03-02T02:57:29.776Z,97944.00
2023-03-02T03:00:00.325Z,97959.00
2023-03-02T03:02:34.833Z,97956.00
2023-03-02T03:05:04.442Z,97950.00
2023-03-02T03:07:34.893Z,97942.00
2023-03-02T03:10:21.895Z,97956.00
2023-03-02T03:12:51.090Z,97954.00
2023-03-02T03:15:21.534Z,97945.00
2023-03-02T03:17:58.260Z,97945.00
2023-03-02T03:20:29.114Z,97943.00
2023-03-02T03:22:59.404Z,97944.00
2023-03-02T03:25:27.942Z,97938.00
2023-03-02T03:27:55.773Z,97953.00
2023-03-02T03:30:22.769Z,97941.00
2023-03-02T03:32:49.905Z,97940.00
2023-03-02T03:35:17.327Z,97933.00
2023-03-02T03:37:45.644Z,97951.00
2023-03-02T03:40:12.613Z,97957.00
2023-03-02T03:42:43.384Z,97961.00
2023-03-02T03:45:10.634Z,97953.00
2023-03-02T03:47:39.668Z,97953.00
2023-03-02T03:50:09.070Z,97950.00
2023-03-02T03:52:36.277Z,97952.00
2023-03-02T03:55:12.437Z,97949.00
2023-03-02T03:57:41.920Z,97946.00
2023-03-02T04:00:17.271Z,97958.00
2023-03-02T04:02:50.842Z,97940.00
2023-03-02T04:05:18.973Z,97948.00
2023-03-02T04:07:49.347Z,97945.00
2023-03-02T04:10:16.168Z,97941.00
2023-03-02T04:12:45.319Z,97932.00
2023-03-02T04:15:17.448Z,97935.00
2023-03-02T04:17:46.192Z,97927.00
2023-03-02T04:20:19.213Z,97935.00
2023-03-02T04:22:52.526Z,97943.00
2023-03-02T04:25:24.331Z,97939.00
2023-03-02T04:27:55.175Z,97936.00
2023-03-02T04:30:27.034Z,97941.00
2023-03-02T04:32:57.547Z,97929.00
2023-03-02T04:35:26.400Z,97940.00
2023-03-02T04:37:54.053Z,97946.00
2023-03-02T04:40:21.387Z,97956.00
2023-03-02T04:42:48.190Z,97950.00
2023-03-02T04:45:15.665Z,97943.00
2023-03-02T04:47:43.079Z,97964.00
2023-03-02T04:50:13.905Z,97970.00
2023-03-02T04:52:41.565Z,97960.00
2023-03-02T04:55:09.124Z,97961.00
2023-03-02T04:57:36.240Z,97958.00
2023-03-02T05:00:05.227Z,97961.00
2023-03-02T05:02:32.063Z,97966.00
2023-03-02T05:04:59.084Z,97956.00
2023-03-02T05:07:26.230Z,97967.00
2023-03-02T05:09:52.991Z,97948.00
2023-03-02T05:12:21.570Z,97955.00
2023-03-02T05:14:48.421Z,97945.00
2023-03-02T05:17:15.601Z,97947.00
2023-03-02T05:19:42.442Z,97942.00
2023-03-02T05:22:09.223Z,97941.00
2023-03-02T05:24:36.027Z,97940.00
2023-03-02T05:27:02.774Z,97950.00
2023-03-02T05:29:29.585Z,97935.00
2023-03-02T05:31:56.520Z,97943.00
2023-03-02T05:34:23.420Z,97945.00
2023-03-02T05:36:50.322Z,97939.00
2023-03-02T05:39:17.113Z,97941.00
2023-03-02T05:41:44.271Z,97936.00
2023-03-02T05:44:12.437Z,97939.00
2023-03-02T05:46:43.339Z,97950.00
2023-03-02T05:49:10.722Z,97944.00
2023-03-02T05:51:37.559Z,97931.00
2023-03-02T05:54:04.695Z,97946.00
2023-03-02T05:56:31.925Z,97953.00
2023-03-02T05:58:59.262Z,97941.00
2023-03-02T06:01:26.195Z,97965.00
2023-03-02T06:03:52.983Z,97959.00
2023-03-02T06:06:19.874Z,97957.00
2023-03-02T06:08:46.703Z,97939.00
2023-03-02T06:11:13.666Z,97964.00
2023-03-02T06:13:40.889Z,97950.00
2023-03-02T06:16:08.925Z,97947.00
2023-03-02T06:18:36.744Z,97960.00
2023-03-02T06:21:04.717Z,97949.00
2023-03-02T06:23:31.548Z,97952.00
2023-03-02T06:25:59.356Z,97955.00
2023-03-02T06:28:27.071Z,97950.00
2023-03-02T06:30:54.032Z,97960.00
2023-03-02T06:33:21.313Z,97951.00
2023-03-02T06:35:49.494Z,97955.00
2023-03-02T06:38:16.774Z,97957.00
2023-03-02T06:40:43.914Z,97941.00
2023-03-02T06:43:10.949Z,97969.00
2023-03-02T06:45:37.952Z,97957.00
2023-03-02T06:48:06.135Z,97958.00
2023-03-02T06:50:34.274Z,97964.00
2023-03-02T06:53:01.633Z,97955.00
2023-03-02T06:55:28.439Z,97967.00
2023-03-02T06:57:55.382Z,97980.00
2023-03-02T07:00:27.904Z,97970.00
2023-03-02T07:02:56.140Z,97982.00
2023-03-02T07:05:24.516Z,97965.00
2023-03-02T07:07:51.844Z,97968.00
2023-03-02T07:10:19.131Z,97962.00
2023-03-02T07:12:46.282Z,97975.00
2023-03-02T07:15:14.580Z,97961.00
2023-03-02T07:17:44.300Z,97964.00
2023-03-02T07:20:14.852Z,97969.00
2023-03-02T07:22:43.443Z,97961.00
2023-03-02T07:25:11.399Z,97978.00
2023-03-02T07:27:38.747Z,97975.00
2023-03-02T07:30:07.179Z,97963.00
2023-03-02T07:32:34.166Z,97965.00
2023-03-02T07:35:01.151Z,97976.00
2023-03-02T07:37:30.207Z,97952.00
2023-03-02T07:39:59.195Z,97966.00
2023-03-02T07:42:29.263Z,97965.00
2023-03-02T07:44:59.971Z,97980.00
2023-03-02T07:47:28.141Z,97948.00
2023-03-02T07:49:56.795Z,97967.00
2023-03-02T07:52:24.346Z,97943.00
2023-03-02T07:54:51.410Z,97962.00
2023-03-02T07:57:18.329Z,97956.00
2023-03-02T07:59:45.562Z,97969.00
2023-03-02T08:02:20.720Z,97963.00
2023-03-02T08:04:56.322Z,97948.00
2023-03-02T08:07:24.876Z,97975.00
2023-03-02T08:09:51.953Z,97973.00
2023-03-02T08:12:18.857Z,97957.00
2023-03-02T08:14:47.952Z,97958.00
2023-03-02T08:17:15.167Z,97943.00
2023-03-02T08:19:42.064Z,97931.00
2023-03-02T08:22:09.096Z,97945.00
2023-03-02T08:24:35.917Z,97947.00
2023-03-02T08:27:04.287Z,97955.00
2023-03-02T08:29:31.245Z,97943.00
2023-03-02T08:31:59.086Z,97917.00
2023-03-02T08:34:26.838Z,97934.00
2023-03-02T08:36:54.186Z,97916.00
2023-03-02T08:39:23.431Z,97956.00
2023-03-02T08:41:53.377Z,97931.00
2023-03-02T08:44:23.006Z,97963.00
2023-03-02T08:46:51.825Z,97946.00
2023-03-02T08:49:20.052Z,97930.00
2023-03-02T08:51:53.719Z,97914.00
2023-03-02T08:54:21.262Z,97947.00
2023-03-02T08:56:49.463Z,97882.00
2023-03-02T08:59:16.949Z,97930.00
2023-03-02T09:01:43.997Z,97927.00
2023-03-02T09:04:11.467Z,97928.00
2023-03-02T09:06:44.891Z,97925.00
2023-03-02T09:09:14.730Z,97922.00
2023-03-02T09:11:42.599Z,97925.00
2023-03-02T09:14:09.735Z,97912.00
2023-03-02T09:16:36.725Z,97926.00
2023-03-02T09:19:04.174Z,97906.00
2023-03-02T09:21:31.414Z,97911.00
2023-03-02T09:23:58.586Z,97922.00
2023-03-02T09:26:28.590Z,97912.00
2023-03-02T09:28:56.459Z,97897.00
2023-03-02T09:31:23.594Z,97920.00
2023-03-02T09:33:50.756Z,97914.00
2023-03-02T09:36:24.838Z,97912.00
2023-03-02T09:38:52.416Z,97908.00
2023-03-02T09:41:19.297Z,97914.00
2023-03-02T09:44:25.559Z,97904.00
2023-03-02T09:47:35.729Z,97913.00
2023-03-02T09:50:27.857Z,97886.00
2023-03-02T09:53:53.304Z,97885.00
2023-03-02T09:56:21.532Z,97893.00
2023-03-02T09:59:06.821Z,97909.00
2023-03-02T10:01:52.131Z,97893.00
2023-03-02T10:04:25.132Z,97886.00
2023-03-02T10:07:00.643Z,97886.00
2023-03-02T10:09:27.572Z,97883.00
2023-03-02T10:12:41.644Z,97896.00
2023-03-02T10:15:16.550Z,97905.00
2023-03-02T10:18:11.279Z,97893.00
2023-03-02T10:21:07.121Z,97895.00
2023-03-02T10:24:24.118Z,97890.00
2023-03-02T10:26:59.434Z,97898.00
2023-03-02T10:30:18.216Z,97894.00
2023-03-02T10:32:52.285Z,97886.00
2023-03-02T10:35:24.703Z,97887.00
2023-03-02T10:37:59.351Z,97900.00
2023-03-02T10:40:52.853Z,97886.00
2023-03-02T10:43:37.238Z,97882.00
2023-03-02T10:46:10.937Z,97882.00
2023-03-02T10:48:56.395Z,97886.00
2023-03-02T10:51:30.602Z,97885.00
2023-03-02T10:54:13.166Z,97883.00
2023-03-02T10:56:48.500Z,97877.00
2023-03-02T10:59:47.417Z,97868.00
2023-03-02T11:02:29.563Z,97882.00
2023-03-02T11:05:26.039Z,97889.00
2023-03-02T11:08:04.428Z,97896.00
2023-03-02T11:10:51.177Z,97879.00
2023-03-02T11:13:38.896Z,97873.00
2023-03-02T11:16:26.980Z,97883.00
2023-03-02T11:19:19.565Z,97876.00
2023-03-02T11:22:21.586Z,97871.00
2023-03-02T11:24:55.951Z,97880.00
2023-03-02T11:27:28.303Z,97875.00
2023-03-02T11:30:22.567Z,97877.00
2023-03-02T11:33:09.876Z,97889.00
2023-03-02T11:35:59.286Z,97891.00
2023-03-02T11:38:34.098Z,97875.00
2023-03-02T11:41:12.987Z,97881.00
2023-03-02T11:43:40.073Z,97874.00
2023-03-02T11:46:22.316Z,97867.00
2023-03-02T11:48:56.126Z,97867.00
2023-03-02T11:51:39.085Z,97877.00
2023-03-02T11:54:37.758Z,97877.00
2023-03-02T11:57:05.437Z,97877.00
2023-03-02T11:59:35.491Z,97864.00
2023-03-02T12:02:03.084Z,97869.00
2023-03-02T12:04:36.329Z,97860.00
2023-03-02T12:07:27.166Z,97863.00
2023-03-02T12:10:32.050Z,97859.00
2023-03-02T12:13:21.991Z,97852.00
2023-03-02T12:15:52.181Z,97851.00
2023-03-02T12:18:22.106Z,97855.00
2023-03-02T12:21:22.446Z,97855.00
2023-03-02T12:23:49.162Z,97831.00
2023-03-02T12:26:31.297Z,97838.00
2023-03-02T12:29:10.371Z,97848.00
2023-03-02T12:31:53.737Z,97845.00
2023-03-02T12:34:35.831Z,97834.00
2023-03-02T12:37:34.908Z,97835.00
2023-03-02T12:40:29.706Z,97836.00
2023-03-02T12:43:37.640Z,97837.00
2023-03-02T12:46:32.047Z,97834.00
2023-03-02T12:49:45.548Z,97836.00
2023-03-02T12:52:29.286Z,97821.00
2023-03-02T12:55:20.321Z,97820.00
2023-03-02T12:57:51.045Z,97823.00
2023-03-02T13:00:22.101Z,97820.00
2023-03-02T13:02:53.948Z,97810.00
2023-03-02T13:05:31.458Z,97818.00
2023-03-02T13:08:13.423Z,97807.00
2023-03-02T13:10:47.986Z,97785.00
2023-03-02T13:13:25.584Z,97817.00
2023-03-02T13:16:00.757Z,97797.00
2023-03-02T13:18:33.982Z,97793.00
2023-03-02T13:21:03.950Z,97790.00
2023-03-02T13:23:33.746Z,97810.00
2023-03-02T13:26:04.443Z,97798.00
2023-03-02T13:28:38.861Z,97788.00
2023-03-02T13:31:20.942Z,97792.00
2023-03-02T13:33:50.534Z,97791.00
2023-03-02T13:36:46.899Z,97783.00
2023-03-02T13:39:22.277Z,97769.00
2023-03-02T13:42:01.746Z,97781.00
2023-03-02T13:44:35.295Z,97785.00
2023-03-02T13:47:02.795Z,97769.00
2023-03-02T13:49:35.965Z,97778.00
2023-03-02T13:52:29.572Z,97780.00
2023-03-02T13:54:56.364Z,97776.00
2023-03-02T13:57:31.244Z,97786.00
2023-03-02T14:00:00.116Z,97766.00
2023-03-02T14:02:30.323Z,97773.00
2023-03-02T14:04:57.962Z,97779.00
2023-03-02T14:07:25.128Z,97760.00
2023-03-02T14:09:51.980Z,97776.00
2023-03-02T14:12:28.646Z,97753.00
2023-03-02T14:14:59.680Z,97751.00
2023-03-02T14:17:27.119Z,97743.00
2023-03-02T14:19:55.300Z,97755.00
2023-03-02T14:22:26.231Z,97749.00
2023-03-02T14:24:53.542Z,97743.00
2023-03-02T14:27:22.422Z,97736.00
2023-03-02T14:29:49.339Z,97742.00
2023-03-02T14:32:16.262Z,97730.00
2023-03-02T14:34:43.448Z,97742.00
2023-03-02T14:37:21.729Z,97736.00
2023-03-02T14:39:53.427Z,97738.00
2023-03-02T14:42:22.125Z,97735.00
2023-03-02T14:44:50.864Z,97736.00
2023-03-02T14:47:19.409Z,97738.00
2023-03-02T14:49:46.959Z,97746.00
2023-03-02T14:52:28.535Z,97747.00
2023-03-02T14:55:02.375Z,97720.00
2023-03-02T14:57:35.671Z,97735.00
2023-03-02T15:00:02.686Z,97722.00
2023-03-02T15:02:29.585Z,97737.00
2023-03-02T15:04:57.425Z,97739.00
2023-03-02T15:07:27.100Z,97743.00
2023-03-02T15:09:58.505Z,97755.00
2023-03-02T15:12:25.522Z,97743.00
2023-03-02T15:14:52.842Z,97754.00
2023-03-02T15:17:20.097Z,97748.00
2023-03-02T15:19:47.688Z,97739.00
2023-03-02T15:22:14.621Z,97734.00
2023-03-02T15:24:41.580Z,97727.00
2023-03-02T15:27:08.558Z,97749.00
2023-03-02T15:29:35.420Z,97736.00
2023-03-02T15:32:02.449Z,97730.00
2023-03-02T15:34:29.383Z,97730.00
2023-03-02T15:36:56.176Z,97741.00
2023-03-02T15:39:22.958Z,97727.00
2023-03-02T15:41:49.799Z,97740.00
2023-03-02T15:44:24.060Z,97741.00
2023-03-02T15:46:56.409Z,97748.00
2023-03-02T15:49:27.112Z,97742.00
2023-03-02T15:51:59.772Z,97740.00
2023-03-02T15:54:29.310Z,97748.00
2023-03-02T15:56:56.736Z,97741.00
2023-03-02T15:59:29.665Z,97738.00
2023-03-02T16:02:02.483Z,97737.00
2023-03-02T16:04:32.068Z,97752.00
2023-03-02T16:06:59.152Z,97730.00
2023-03-02T16:09:29.029Z,97750.00
2023-03-02T16:11:56.141Z,97751.00
2023-03-02T16:14:23.276Z,97762.00
2023-03-02T16:16:50.416Z,97739.00
2023-03-02T16:19:19.395Z,97743.00
2023-03-02T16:21:47.593Z,97752.00
2023-03-02T16:24:16.255Z,97754.00
2023-03-02T16:26:44.582Z,97750.00
2023-03-02T16:29:14.816Z,97743.00
2023-03-02T16:31:44.841Z,97765.00
2023-03-02T16:34:11.737Z,97768.00
2023-03-02T16:36:41.075Z,97767.00
2023-03-02T16:39:11.094Z,97773.00
2023-03-02T16:41:41.158Z,97767.00
2023-03-02T16:44:10.272Z,97767.00
2023-03-02T16:46:39.949Z,97766.00
2023-03-02T16:49:06.954Z,97779.00
2023-03-02T16:51:33.807Z,97786.00
2023-03-02T16:54:01.025Z,97785.00
2023-03-02T16:56:28.170Z,97780.00
2023-03-02T16:58:55.700Z,97785.00
2023-03-02T17:01:23.064Z,97808.00
2023-03-02T17:03:51.332Z,97804.00
2023-03-02T17:06:22.985Z,97793.00
2023-03-02T17:08:51.354Z,97795.00
2023-03-02T17:11:19.306Z,97812.00
2023-03-02T17:13:46.933Z,97808.00
2023-03-02T17:16:16.018Z,97816.00
2023-03-02T17:18:46.739Z,97796.00
2023-03-02T17:21:16.367Z,97794.00
2023-03-02T17:23:43.913Z,97821.00
2023-03-02T17:26:10.849Z,97820.00
2023-03-02T17:28:39.059Z,97826.00
2023-03-02T17:31:07.006Z,97832.00
2023-03-02T17:33:34.673Z,97826.00
2023-03-02T17:36:08.487Z,97838.00
2023-03-02T17:38:35.656Z,97838.00
2023-03-02T17:41:05.148Z,97851.00
2023-03-02T17:43:35.324Z,97850.00
2023-03-02T17:46:21.185Z,97860.00
2023-03-02T17:48:53.987Z,97847.00
2023-03-02T17:51:22.112Z,97852.00
2023-03-02T17:53:51.328Z,97869.00
2023-03-02T17:56:22.954Z,97876.00
2023-03-02T17:58:56.020Z,97866.00
2023-03-02T18:01:22.909Z,97871.00
2023-03-02T18:03:50.079Z,97892.00
2023-03-02T18:06:20.005Z,97890.00
2023-03-02T18:08:49.663Z,97886.00
2023-03-02T18:11:19.818Z,97864.00
2023-03-02T18:13:46.952Z,97892.00
2023-03-02T18:16:14.398Z,97901.00
2023-03-02T18:18:41.504Z,97892.00
2023-03-02T18:21:08.486Z,97897.00
2023-03-02T18:23:35.692Z,97894.00
2023-03-02T18:26:02.778Z,97895.00
2023-03-02T18:28:29.647Z,97908.00
2023-03-02T18:30:56.731Z,97913.00
2023-03-02T18:33:23.630Z,97907.00
2023-03-02T18:35:51.080Z,97923.00
2023-03-02T18:38:18.025Z,97907.00
2023-03-02T18:40:44.976Z,97904.00
2023-03-02T18:43:11.839Z,97928.00
2023-03-02T18:45:38.822Z,97922.00
2023-03-02T18:48:06.032Z,97930.00
2023-03-02T18:50:32.880Z,97913.00
2023-03-02T18:53:00.822Z,97923.00
2023-03-02T18:55:27.701Z,97914.00
2023-03-02T18:57:54.891Z,97917.00
2023-03-02T19:00:28.172Z,97915.00
2023-03-02T19:02:57.067Z,97930.00
2023-03-02T19:05:26.786Z,97920.00
2023-03-02T19:07:54.731Z,97929.00
2023-03-02T19:10:21.695Z,97921.00
2023-03-02T19:12:48.684Z,97921.00
2023-03-02T19:15:15.821Z,97917.00
2023-03-02T19:17:43.685Z,97934.00
2023-03-02T19:20:18.600Z,97936.00
2023-03-02T19:22:46.182Z,97933.00
2023-03-02T19:25:13.626Z,97941.00
2023-03-02T19:27:41.004Z,97926.00
2023-03-02T19:30:12.208Z,97937.00
2023-03-02T19:32:39.655Z,97933.00
2023-03-02T19:35:07.260Z,97936.00
2023-03-02T19:37:34.086Z,97936.00
2023-03-02T19:40:01.346Z,97933.00
2023-03-02T19:42:30.311Z,97949.00
2023-03-02T19:44:57.381Z,97934.00
2023-03-02T19:47:24.234Z,97943.00
2023-03-02T19:49:51.011Z,97937.00
2023-03-02T19:52:17.819Z,97945.00
2023-03-02T19:54:44.654Z,97948.00
2023-03-02T19:57:11.540Z,97923.00
2023-03-02T19:59:40.608Z,97938.00
2023-03-02T20:02:07.565Z,97934.00
2023-03-02T20:04:35.176Z,97915.00
2023-03-02T20:07:03.043Z,97943.00
2023-03-02T20:09:30.031Z,97939.00
2023-03-02T20:11:58.792Z,97937.00
2023-03-02T20:14:33.683Z,97941.00
2023-03-02T20:17:04.879Z,97937.00
2023-03-02T20:19:32.470Z,97957.00
2023-03-02T20:21:59.565Z,97938.00
2023-03-02T20:24:26.394Z,97958.00
2023-03-02T20:26:53.738Z,97962.00
2023-03-02T20:29:21.722Z,97965.00
2023-03-02T20:31:48.886Z,97966.00
2023-03-02T20:34:18.695Z,97953.00
2023-03-02T20:36:45.789Z,97956.00
2023-03-02T20:39:26.257Z,97963.00
2023-03-02T20:41:54.111Z,97963.00
2023-03-02T20:44:23.854Z,97968.00
2023-03-02T20:46:58.899Z,97963.00
2023-03-02T20:49:29.576Z,97980.00
2023-03-02T20:51:58.774Z,97970.00
2023-03-02T20:54:35.021Z,97976.00
2023-03-02T20:57:02.048Z,97983.00
2023-03-02T20:59:29.741Z,97971.00
2023-03-02T21:01:56.559Z,97978.00
2023-03-02T21:04:23.555Z,97986.00
2023-03-02T21:06:51.560Z,97974.00
2023-03-02T21:09:18.957Z,97975.00
2023-03-02T21:11:46.913Z,97983.00
2023-03-02T21:14:14.448Z,97980.00
2023-03-02T21:16:44.379Z,98001.00
2023-03-02T21:19:16.225Z,97979.00
2023-03-02T21:21:43.377Z,97977.00
2023-03-02T21:24:20.583Z,97986.00
2023-03-02T21:26:50.689Z,97983.00
2023-03-02T21:29:20.825Z,97974.00
2023-03-02T21:31:47.976Z,97978.00
2023-03-02T21:34:16.453Z,97985.00
2023-03-02T21:36:43.571Z,97975.00
2023-03-02T21:39:11.724Z,97976.00
2023-03-02T21:41:39.153Z,97969.00
2023-03-02T21:44:06.682Z,97985.00
2023-03-02T21:46:36.511Z,97970.00
2023-03-02T21:49:03.840Z,97978.00
2023-03-02T21:51:31.191Z,97972.00
2023-03-02T21:53:58.117Z,97954.00
2023-03-02T21:56:26.073Z,97964.00
2023-03-02T21:58:56.543Z,97960.00
2023-03-02T22:01:25.525Z,97966.00
2023-03-02T22:03:53.097Z,97964.00
2023-03-02T22:06:30.695Z,97967.00
2023-03-02T22:08:58.035Z,97954.00
2023-03-02T22:11:32.628Z,97957.00
2023-03-02T22:14:09.924Z,97960.00
2023-03-02T22:16:41.078Z,97964.00
2023-03-02T22:19:30.026Z,97957.00
2023-03-02T22:22:03.222Z,97960.00
2023-03-02T22:24:32.752Z,97972.00
2023-03-02T22:27:01.800Z,97970.00
2023-03-02T22:29:45.174Z,97957.00
2023-03-02T22:32:23.360Z,97962.00
2023-03-02T22:35:14.055Z,97964.00
2023-03-02T22:37:41.102Z,97960.00
2023-03-02T22:40:31.102Z,97965.00
2023-03-02T22:43:19.250Z,97958.00
2023-03-02T22:45:46.085Z,97957.00
2023-03-02T22:48:23.078Z,97955.00
2023-03-02T22:50:50.679Z,97953.00
2023-03-02T22:53:32.312Z,97946.00
2023-03-02T22:56:04.839Z,97936.00
2023-03-02T22:58:50.286Z,97916.00
2023-03-02T23:01:38.243Z,97950.00
2023-03-02T23:04:08.101Z,97953.00
2023-03-02T23:06:49.390Z,97949.00
2023-03-02T23:09:21.599Z,97941.00
2023-03-02T23:11:50.061Z,97965.00
2023-03-02T23:14:41.847Z,97959.00
2023-03-02T23:17:14.410Z,97949.00
2023-03-02T23:19:41.370Z,97939.00
2023-03-02T23:22:09.380Z,97957.00
2023-03-02T23:24:36.719Z,97945.00
2023-03-02T23:27:03.924Z,97959.00
2023-03-02T23:29:31.026Z,97945.00
2023-03-02T23:31:58.509Z,97960.00
2023-03-02T23:34:25.519Z,97939.00
2023-03-02T23:36:52.547Z,97942.00
2023-03-02T23:39:19.414Z,97942.00
2023-03-02T23:41:46.298Z,97961.00
2023-03-02T23:44:13.130Z,97937.00
2023-03-02T23:46:39.974Z,97955.00
2023-03-02T23:49:06.860Z,97967.00
2023-03-02T23:51:33.890Z,97938.00
2023-03-02T23:54:02.396Z,97976.00
2023-03-02T23:56:31.010Z,97967.00
2023-03-02T23:58:57.891Z,97951.00
